3K3

Syracuse-Hamilton County Municipal Airport

Syracuse, Kansas, USA
METAR K3K3 132155Z AUTO 30007KT 10SM CLR 05/M04 A3044 RMK AO2
Observed Flight Rules
Nov-13 @ 21:55 UTC (35 minutes ago) Visual Flight Rules
Wind Visibility Clouds
300° at 7 knots 10 miles
  • Clear skies
Temperatures Readings
Current 5°C / 41°F
Dewpoint -4°C / 25°F
Humidity 53%
Altimeter 30.44" Hg
Pressure 1031 hPa
Elevation 1013
METAR K3K3 132155Z AUTO 30007KT 10SM CLR 05/M04 A3044 RMK AO2
Observed Flight Rules
Nov-13 @ 21:55 UTC
(35 minutes ago)
VFR
Wind Visibility
300° at 7 knots 10 miles
Clouds
  • Clear skies
Temperature Dewpoint
5°C / 41°F -4°C / 25°F
Humidity Altimeter Pressure
53% 30.44" Hg 1031 hPa